Time;durP1;ratioP1;P1;durP2;ratioP2;P2;SDS_P1;SDS_P2;PMS_P1;PMS_P2;Temp;Humidity;BMP_temperature;BMP_pressure;BME280_temperature;BME280_humidity;BME280_pressure;Samples;Min_cycle;Max_cycle;Signal;HPM_P1;HPM_P2
2022/05/14 00:01:21;;;;;;;4.15;1.40;;;13.30;99.90;;;;;;5035865;28;20030;-37
2022/05/14 00:03:47;;;;;;;5.43;1.55;;;13.30;99.90;;;;;;5035373;28;20056;-38
2022/05/14 00:06:17;;;;;;;5.80;1.83;;;13.30;99.90;;;;;;5035636;28;20500;-40
2022/05/14 00:08:43;;;;;;;3.60;1.60;;;13.30;99.90;;;;;;5035448;28;20021;-44
2022/05/14 00:13:54;;;;;;;5.03;1.67;;;13.30;99.90;;;;;;5035576;28;20405;-44
2022/05/14 00:16:23;;;;;;;6.53;1.60;;;13.20;99.90;;;;;;5035272;28;20500;-59
2022/05/14 00:18:49;;;;;;;10.43;1.85;;;13.20;99.90;;;;;;5035529;28;20415;-37
2022/05/14 00:21:15;;;;;;;4.95;1.90;;;13.20;99.90;;;;;;5035162;28;20429;-38
2022/05/14 00:23:41;;;;;;;10.98;2.38;;;13.20;99.90;;;;;;5035146;28;20022;-36
2022/05/14 00:26:07;;;;;;;6.80;1.90;;;13.20;99.90;;;;;;5033605;28;20046;-33
2022/05/14 00:28:33;;;;;;;10.18;1.90;;;13.20;99.90;;;;;;5034991;28;20021;-34
2022/05/14 00:30:58;;;;;;;6.13;2.05;;;13.20;99.90;;;;;;5034957;28;20021;-32
2022/05/14 00:33:24;;;;;;;7.53;2.03;;;13.10;99.90;;;;;;5034842;28;20029;-33
2022/05/14 00:35:50;;;;;;;6.47;1.88;;;13.10;99.90;;;;;;5034946;28;20095;-32
2022/05/14 00:38:16;;;;;;;8.23;2.38;;;13.10;99.90;;;;;;5033569;28;20040;-36
2022/05/14 00:40:46;;;;;;;7.95;1.58;;;13.10;99.90;;;;;;5035090;28;20017;-32
2022/05/14 00:43:12;;;;;;;14.38;3.03;;;13.10;99.90;;;;;;5033687;28;20022;-33
2022/05/14 00:45:41;;;;;;;10.77;2.88;;;13.10;99.90;;;;;;5034726;28;20071;-38
2022/05/14 00:48:10;;;;;;;9.27;1.58;;;13.10;99.90;;;;;;5034655;28;20057;-47
2022/05/14 00:50:46;;;;;;;9.07;1.98;;;13.10;99.90;;;;;;5034444;28;20024;-37
2022/05/14 00:53:40;;;;;;;6.57;2.50;;;13.10;99.90;;;;;;5034566;28;20084;-37
2022/05/14 00:56:09;;;;;;;4.47;1.52;;;13.10;99.90;;;;;;5034784;28;20033;-38
2022/05/14 00:59:01;;;;;;;10.60;1.75;;;13.00;99.90;;;;;;5034530;28;20105;-51
2022/05/14 01:01:28;;;;;;;11.35;2.20;;;13.10;99.90;;;;;;5034417;28;20516;-37
2022/05/14 01:03:53;;;;;;;8.70;2.20;;;13.00;99.90;;;;;;5034329;28;20482;-34
2022/05/14 01:06:20;;;;;;;15.00;2.60;;;13.00;99.90;;;;;;5034393;28;20028;-36
2022/05/14 01:08:50;;;;;;;11.10;2.42;;;13.00;99.90;;;;;;5034520;28;20029;-31
2022/05/14 01:11:17;;;;;;;13.05;2.58;;;13.00;99.90;;;;;;5034789;28;20484;-33
2022/05/14 01:13:43;;;;;;;7.22;2.08;;;12.90;99.90;;;;;;5034148;28;20068;-32
2022/05/14 01:16:08;;;;;;;5.80;2.13;;;12.90;99.90;;;;;;5034106;28;20026;-33
2022/05/14 01:18:37;;;;;;;11.85;1.90;;;12.90;99.90;;;;;;5034069;28;20109;-34
2022/05/14 01:21:28;;;;;;;10.05;2.55;;;12.90;99.90;;;;;;5034075;28;20025;-37
2022/05/14 01:27:11;;;;;;;3.45;1.70;;;12.80;99.90;;;;;;5034310;28;20129;-39
2022/05/14 01:29:38;;;;;;;12.15;2.35;;;12.80;99.90;;;;;;5033958;28;20053;-40
2022/05/14 01:32:04;;;;;;;6.30;2.47;;;12.80;99.90;;;;;;5033955;28;20026;-38
2022/05/14 01:34:35;;;;;;;7.70;2.60;;;12.80;99.90;;;;;;5033708;28;20029;-31
2022/05/14 01:37:01;;;;;;;4.30;2.40;;;12.80;99.90;;;;;;5034084;28;20519;-30
2022/05/14 01:39:28;;;;;;;10.38;2.60;;;12.80;99.90;;;;;;5034016;28;20393;-30
2022/05/14 01:41:54;;;;;;;7.63;2.30;;;12.80;99.90;;;;;;5033677;28;20040;-33
2022/05/14 01:44:20;;;;;;;9.35;2.42;;;12.70;99.90;;;;;;5033649;28;20053;-39
2022/05/14 01:46:46;;;;;;;17.48;2.63;;;12.70;99.90;;;;;;5033552;28;20032;-37
2022/05/14 01:49:11;;;;;;;9.52;2.58;;;12.70;99.90;;;;;;5033526;28;20033;-37
2022/05/14 01:51:37;;;;;;;7.72;2.78;;;12.70;99.90;;;;;;5033541;28;20021;-37
2022/05/14 01:54:04;;;;;;;11.98;2.75;;;12.70;99.90;;;;;;5031885;28;20050;-32
2022/05/14 01:56:30;;;;;;;8.45;2.30;;;12.60;99.90;;;;;;5033483;28;20022;-35
2022/05/14 01:58:55;;;;;;;11.75;4.07;;;12.70;99.90;;;;;;5033437;28;20389;-33
2022/05/14 02:01:24;;;;;;;7.45;3.03;;;12.60;99.90;;;;;;5032867;28;20037;-36
2022/05/14 02:03:53;;;;;;;11.07;3.10;;;12.60;99.90;;;;;;5033276;28;20025;-31
2022/05/14 02:06:20;;;;;;;15.32;3.45;;;12.60;99.90;;;;;;5033237;28;20024;-36
2022/05/14 02:08:45;;;;;;;18.40;3.85;;;12.60;99.90;;;;;;5031626;28;20029;-30
2022/05/14 02:11:13;;;;;;;9.48;3.85;;;12.60;99.90;;;;;;5033299;28;20028;-38
2022/05/14 02:13:40;;;;;;;5.93;3.30;;;12.60;99.90;;;;;;5033258;28;20108;-47
2022/05/14 02:16:05;;;;;;;17.67;3.78;;;12.60;99.90;;;;;;5033167;28;20055;-39
2022/05/14 02:18:31;;;;;;;13.07;4.15;;;12.50;99.90;;;;;;5033144;28;20108;-38
2022/05/14 02:20:57;;;;;;;13.50;3.53;;;12.50;99.90;;;;;;5033130;28;20032;-37
2022/05/14 02:23:23;;;;;;;8.32;3.95;;;12.50;99.90;;;;;;5033032;28;20025;-37
2022/05/14 02:25:48;;;;;;;7.57;3.72;;;12.50;99.90;;;;;;5032921;28;20134;-47
2022/05/14 02:28:15;;;;;;;14.05;3.97;;;12.50;99.90;;;;;;5033294;28;20053;-38
2022/05/14 02:30:42;;;;;;;19.03;5.23;;;12.50;99.90;;;;;;5033301;28;20032;-35
2022/05/14 02:33:08;;;;;;;14.07;3.50;;;12.50;99.90;;;;;;5032910;28;20272;-35
2022/05/14 02:35:34;;;;;;;10.38;3.47;;;12.50;99.90;;;;;;5032997;28;20105;-33
2022/05/14 02:38:00;;;;;;;12.77;3.70;;;12.50;99.90;;;;;;5032988;28;20095;-35
2022/05/14 02:40:25;;;;;;;11.95;3.97;;;12.50;99.90;;;;;;5032964;28;20025;-30
2022/05/14 02:42:52;;;;;;;12.88;4.30;;;12.40;99.90;;;;;;5032919;28;20079;-33
2022/05/14 02:45:17;;;;;;;10.85;4.68;;;12.40;99.90;;;;;;5032958;28;20080;-47
2022/05/14 02:47:43;;;;;;;9.80;4.00;;;12.40;99.90;;;;;;5032915;28;20029;-38
2022/05/14 02:50:10;;;;;;;12.90;4.13;;;12.40;99.90;;;;;;5032867;28;20532;-39
2022/05/14 02:52:36;;;;;;;16.48;4.97;;;12.40;99.90;;;;;;5032894;28;20033;-37
2022/05/14 02:55:02;;;;;;;14.43;4.95;;;12.40;99.90;;;;;;5032798;28;20034;-38
2022/05/14 02:57:28;;;;;;;11.52;3.72;;;12.40;99.90;;;;;;5032801;28;20026;-37
2022/05/14 02:59:54;;;;;;;13.50;5.20;;;12.40;99.90;;;;;;5031561;28;20365;-38
2022/05/14 03:02:20;;;;;;;17.20;5.15;;;12.40;99.90;;;;;;5032668;28;20030;-35
2022/05/14 03:04:48;;;;;;;9.32;3.22;;;12.30;99.90;;;;;;5033050;28;20029;-29
2022/05/14 03:07:15;;;;;;;11.70;4.43;;;12.30;99.90;;;;;;5032705;28;20026;-32
2022/05/14 03:09:41;;;;;;;7.90;3.57;;;12.30;99.90;;;;;;5032974;28;20359;-32
2022/05/14 03:12:09;;;;;;;8.45;3.05;;;12.30;99.90;;;;;;5032900;28;20261;-35
2022/05/14 03:14:35;;;;;;;;;;;12.30;99.90;;;;;;5035647;28;20029;-30
2022/05/14 03:17:02;;;;;;;15.27;4.07;;;12.30;99.90;;;;;;5036379;28;19905;-35
2022/05/14 03:19:27;;;;;;;15.48;4.05;;;12.30;99.90;;;;;;5035085;28;20068;-33
2022/05/14 03:21:53;;;;;;;11.55;4.70;;;12.30;99.90;;;;;;5036273;28;20033;-35
2022/05/14 03:24:19;;;;;;;13.15;4.28;;;12.20;99.90;;;;;;5036231;28;20017;-35
2022/05/14 03:26:45;;;;;;;13.48;3.75;;;12.20;99.90;;;;;;5036116;28;20175;-31
2022/05/14 03:29:10;;;;;;;13.63;4.43;;;12.20;99.90;;;;;;5036176;28;20018;-32
2022/05/14 03:31:37;;;;;;;17.55;3.88;;;12.20;99.90;;;;;;5036178;28;20056;-30
2022/05/14 03:34:03;;;;;;;18.88;4.25;;;12.20;99.90;;;;;;5035978;28;20056;-38
2022/05/14 03:36:29;;;;;;;13.80;3.92;;;12.20;99.90;;;;;;5034830;28;20033;-33
2022/05/14 03:38:55;;;;;;;11.70;4.70;;;12.20;99.90;;;;;;5036244;28;20128;-33
2022/05/14 03:41:22;;;;;;;16.90;5.35;;;12.10;99.90;;;;;;5035931;28;20053;-31
2022/05/14 03:43:49;;;;;;;14.70;4.75;;;12.10;99.90;;;;;;5035834;28;20045;-35
2022/05/14 03:46:16;;;;;;;14.57;4.93;;;12.10;99.90;;;;;;5035897;28;20064;-32
2022/05/14 03:48:42;;;;;;;13.13;3.70;;;12.10;99.90;;;;;;5035802;28;20033;-30
2022/05/14 03:51:07;;;;;;;8.63;4.63;;;12.00;99.90;;;;;;5036027;28;20025;-33
2022/05/14 03:53:35;;;;;;;17.38;4.85;;;12.10;99.90;;;;;;5035711;28;20036;-32
2022/05/14 03:56:01;;;;;;;;;;;12.00;99.90;;;;;;5036179;28;20117;-33
2022/05/14 03:58:26;;;;;;;18.65;4.18;;;12.10;99.90;;;;;;5035638;28;19944;-31
2022/05/14 04:00:52;;;;;;;9.82;5.30;;;12.10;99.90;;;;;;5035577;28;20486;-35
2022/05/14 04:03:18;;;;;;;21.92;5.53;;;12.10;99.90;;;;;;5035611;28;20100;-30
2022/05/14 04:05:43;;;;;;;12.05;4.80;;;12.00;99.90;;;;;;5035573;28;20047;-33
2022/05/14 04:08:09;;;;;;;11.77;5.28;;;12.00;99.90;;;;;;5035427;28;20068;-33
2022/05/14 04:10:35;;;;;;;14.80;4.63;;;12.10;99.90;;;;;;5035722;28;20101;-38
2022/05/14 04:13:00;;;;;;;18.42;5.20;;;12.10;99.90;;;;;;5035287;28;20029;-38
2022/05/14 04:15:27;;;;;;;12.70;4.43;;;12.10;99.90;;;;;;5035619;28;20029;-39
2022/05/14 04:17:54;;;;;;;16.67;5.05;;;12.10;99.90;;;;;;5034150;28;20037;-38
2022/05/14 04:20:21;;;;;;;10.75;4.40;;;12.20;99.90;;;;;;5035284;28;20079;-37
2022/05/14 04:22:47;;;;;;;12.88;4.60;;;12.20;99.90;;;;;;5035112;28;20481;-38
2022/05/14 04:25:14;;;;;;;13.20;4.50;;;12.20;99.90;;;;;;5034442;28;20227;-45
2022/05/14 04:27:41;;;;;;;16.45;6.22;;;12.20;99.90;;;;;;5035092;28;20041;-38
2022/05/14 04:30:09;;;;;;;17.70;5.28;;;12.20;99.90;;;;;;5035093;28;20529;-38
2022/05/14 04:32:34;;;;;;;17.77;5.50;;;12.20;99.90;;;;;;5035099;28;20029;-33
2022/05/14 04:35:00;;;;;;;19.15;5.78;;;12.30;99.90;;;;;;5034851;28;20053;-30
2022/05/14 04:37:25;;;;;;;13.20;5.05;;;12.30;99.90;;;;;;5034894;28;20018;-34
2022/05/14 04:39:51;;;;;;;14.82;5.00;;;12.40;99.90;;;;;;5034803;28;20033;-32
2022/05/14 04:42:17;;;;;;;11.98;5.60;;;12.40;99.90;;;;;;5034749;28;20021;-30
2022/05/14 04:44:43;;;;;;;18.17;5.82;;;12.40;99.90;;;;;;5035010;28;20013;-33
2022/05/14 04:47:09;;;;;;;20.00;6.15;;;12.40;99.90;;;;;;5034685;28;20025;-29
2022/05/14 04:49:43;;;;;;;17.98;6.05;;;12.50;99.90;;;;;;5034680;28;20056;-39
2022/05/14 04:52:09;;;;;;;15.13;5.30;;;12.50;99.90;;;;;;5034675;28;20022;-39
2022/05/14 04:54:35;;;;;;;17.33;6.43;;;12.50;99.90;;;;;;5034885;28;20032;-38
2022/05/14 04:57:01;;;;;;;29.08;7.50;;;12.50;99.90;;;;;;5034617;28;20135;-39
2022/05/14 04:59:27;;;;;;;13.55;5.43;;;12.60;99.90;;;;;;5034503;28;20025;-37
2022/05/14 05:04:40;;;;;;;15.07;5.90;;;12.70;99.90;;;;;;5034656;28;20041;-38
2022/05/14 05:07:06;;;;;;;19.50;7.32;;;12.70;99.90;;;;;;5034352;28;20025;-38
2022/05/14 05:09:32;;;;;;;12.25;6.20;;;12.80;99.90;;;;;;5034366;28;20385;-38
2022/05/14 05:11:58;;;;;;;11.77;5.88;;;12.80;99.90;;;;;;5034275;28;20026;-37
2022/05/14 05:14:24;;;;;;;21.67;6.20;;;12.90;99.90;;;;;;5034151;28;20029;-31
2022/05/14 05:16:50;;;;;;;15.80;6.10;;;12.90;99.90;;;;;;5034150;28;20021;-32
2022/05/14 05:19:17;;;;;;;17.60;6.32;;;13.00;99.90;;;;;;5034169;28;20472;-32
2022/05/14 05:21:43;;;;;;;19.40;6.15;;;13.00;99.90;;;;;;5034047;28;20143;-49
2022/05/14 05:24:09;;;;;;;19.40;7.32;;;13.10;99.90;;;;;;5033967;28;20052;-38
2022/05/14 05:26:35;;;;;;;18.30;5.93;;;13.10;99.90;;;;;;5033852;28;20489;-37
2022/05/14 05:29:03;;;;;;;17.35;6.45;;;13.20;99.90;;;;;;5033967;28;20057;-38
2022/05/14 05:31:29;;;;;;;13.18;5.85;;;13.30;99.90;;;;;;5034206;28;20017;-38
2022/05/14 05:33:54;;;;;;;14.43;6.25;;;13.40;99.90;;;;;;5033688;28;20029;-34
2022/05/14 05:36:20;;;;;;;17.60;6.53;;;13.50;99.90;;;;;;5033253;28;20044;-31
2022/05/14 05:38:46;;;;;;;15.88;5.95;;;13.50;99.90;;;;;;5034001;28;20025;-31
2022/05/14 05:41:11;;;;;;;17.95;6.47;;;13.60;99.90;;;;;;5033693;28;20051;-46
2022/05/14 05:43:37;;;;;;;21.25;6.95;;;13.60;99.90;;;;;;5032283;28;20077;-38
2022/05/14 05:46:03;;;;;;;19.20;6.55;;;13.60;99.90;;;;;;5033615;28;20030;-37
2022/05/14 05:48:28;;;;;;;15.63;5.93;;;13.60;99.90;;;;;;5032423;28;20021;-38
2022/05/14 05:50:54;;;;;;;17.25;6.28;;;13.80;99.90;;;;;;5033547;28;20458;-40
2022/05/14 05:56:46;;;;;;;25.63;6.78;;;13.90;99.90;;;;;;5033681;28;20021;-38
2022/05/14 05:58:50;;;;;;;22.77;7.40;;;14.00;99.90;;;;;;5033734;28;20124;-38
2022/05/14 06:01:16;;;;;;;20.60;6.55;;;14.00;99.90;;;;;;5033414;28;20056;-38
2022/05/14 06:03:42;;;;;;;16.70;6.38;;;14.00;99.90;;;;;;5033223;28;20435;-39
2022/05/14 06:06:08;;;;;;;16.08;5.78;;;14.20;99.90;;;;;;5033349;28;20029;-45
2022/05/14 06:08:33;;;;;;;19.85;6.13;;;14.60;99.90;;;;;;5033184;28;20063;-37
2022/05/14 06:10:59;;;;;;;27.98;6.00;;;15.30;99.90;;;;;;5033335;28;20030;-38
2022/05/14 06:13:25;;;;;;;18.48;6.10;;;15.60;99.90;;;;;;5033165;28;20482;-37
2022/05/14 06:15:52;;;;;;;17.48;7.20;;;15.60;99.90;;;;;;5033456;28;20022;-37
2022/05/14 06:18:18;;;;;;;19.95;6.57;;;16.00;99.90;;;;;;5033182;28;20024;-37
2022/05/14 06:20:44;;;;;;;13.75;4.68;;;16.70;99.90;;;;;;5033388;28;20029;-38
2022/05/14 06:23:10;;;;;;;13.35;5.88;;;17.70;99.90;;;;;;5033038;28;20084;-38
2022/05/14 06:25:36;;;;;;;15.82;4.68;;;19.30;99.90;;;;;;5032778;28;20064;-40
2022/05/14 06:28:03;;;;;;;19.55;5.25;;;20.70;99.90;;;;;;5033204;28;20029;-39
2022/05/14 06:30:30;;;;;;;22.23;5.13;;;21.50;99.90;;;;;;5033142;28;20474;-37
2022/05/14 06:33:04;;;;;;;26.10;5.57;;;21.30;99.90;;;;;;5033009;28;20386;-37
2022/05/14 06:35:30;;;;;;;23.15;4.88;;;21.20;99.90;;;;;;5033050;28;20022;-37
2022/05/14 06:37:56;;;;;;;17.02;4.57;;;21.50;99.90;;;;;;5033009;28;20038;-37
2022/05/14 06:40:22;;;;;;;18.58;4.43;;;22.00;99.90;;;;;;5032938;28;20025;-39
2022/05/14 06:42:47;;;;;;;10.18;4.40;;;22.60;99.90;;;;;;5033096;28;20031;-38
2022/05/14 06:45:13;;;;;;;17.25;5.40;;;22.40;99.90;;;;;;5032974;28;20029;-36
2022/05/14 06:47:38;;;;;;;16.75;5.68;;;22.50;99.90;;;;;;5034128;28;20033;-38
2022/05/14 06:50:05;;;;;;;15.40;3.83;;;22.20;99.90;;;;;;5037176;28;20100;-40
2022/05/14 06:52:32;;;;;;;17.13;5.88;;;21.90;99.90;;;;;;5037193;28;20096;-40
2022/05/14 06:54:59;;;;;;;15.50;6.53;;;21.90;99.90;;;;;;5036939;28;20548;-30
2022/05/14 06:57:25;;;;;;;19.67;4.78;;;21.90;99.90;;;;;;5037064;28;20025;-30
2022/05/14 06:59:51;;;;;;;17.33;4.68;;;22.10;99.90;;;;;;5036733;28;20029;-31
2022/05/14 07:02:18;;;;;;;11.25;4.05;;;22.30;99.90;;;;;;5036460;28;20482;-30
2022/05/14 07:07:28;;;;;;;14.30;4.60;;;22.50;99.90;;;;;;5036831;28;20041;-35
2022/05/14 07:09:55;;;;;;;17.60;4.60;;;21.50;99.90;;;;;;5036670;28;20393;-33
2022/05/14 07:12:21;;;;;;;15.30;5.22;;;20.20;99.90;;;;;;5036462;28;20512;-30
2022/05/14 07:14:46;;;;;;;13.93;4.35;;;20.20;99.90;;;;;;5036624;28;20022;-30
2022/05/14 07:17:12;;;;;;;14.70;4.32;;;20.70;99.90;;;;;;5036357;28;20433;-32
2022/05/14 07:19:38;;;;;;;22.02;4.95;;;20.60;99.90;;;;;;5036320;28;20041;-34
2022/05/14 07:22:04;;;;;;;22.98;4.93;;;20.60;99.90;;;;;;5036196;28;20079;-30
2022/05/14 07:24:31;;;;;;;14.93;4.22;;;20.30;99.90;;;;;;5036463;28;20474;-32
2022/05/14 07:27:00;;;;;;;11.77;3.63;;;20.00;99.90;;;;;;5035842;28;20045;-31
2022/05/14 07:29:27;;;;;;;19.52;5.32;;;19.90;99.90;;;;;;5036034;28;20040;-33
2022/05/14 07:31:52;;;;;;;17.08;4.40;;;19.40;99.90;;;;;;5036066;28;20053;-30
2022/05/14 07:34:19;;;;;;;15.95;2.75;;;19.00;99.90;;;;;;5035838;28;20048;-30
2022/05/14 07:37:05;;;;;;;13.05;3.75;;;18.60;99.90;;;;;;5036028;28;20044;-34
2022/05/14 07:39:51;;;;;;;10.75;2.80;;;18.70;99.90;;;;;;5036016;28;20025;-32
2022/05/14 07:42:43;;;;;;;9.27;3.33;;;18.70;99.90;;;;;;5035827;28;20021;-30
2022/05/14 07:45:10;;;;;;;14.43;3.50;;;18.90;99.90;;;;;;5035607;28;20042;-32
2022/05/14 07:47:38;;;;;;;7.95;3.00;;;18.80;99.90;;;;;;5035866;28;20017;-31
2022/05/14 07:50:04;;;;;;;;;;;18.90;99.90;;;;;;5036219;28;20180;-38
2022/05/14 07:52:30;;;;;;;8.25;3.05;;;19.20;99.90;;;;;;5035875;28;19987;-37
2022/05/14 07:54:56;;;;;;;13.63;3.42;;;19.30;99.90;;;;;;5035851;28;20075;-39
2022/05/14 07:57:22;;;;;;;10.55;3.08;;;19.20;99.90;;;;;;5035775;28;20025;-40
2022/05/14 07:59:48;;;;;;;8.68;2.00;;;19.10;99.90;;;;;;5034900;28;20490;-40
2022/05/14 08:02:32;;;;;;;12.65;2.85;;;19.20;99.90;;;;;;5035545;28;20500;-39
2022/05/14 08:05:03;;;;;;;14.80;2.50;;;19.20;99.90;;;;;;5035643;28;20037;-38
2022/05/14 08:07:29;;;;;;;11.05;3.17;;;19.20;99.90;;;;;;5035789;28;20486;-37
2022/05/14 08:09:55;;;;;;;8.27;2.35;;;19.30;99.90;;;;;;5035384;28;20482;-36
2022/05/14 08:12:21;;;;;;;18.30;3.38;;;19.40;99.90;;;;;;5035622;28;20022;-38
2022/05/14 08:14:47;;;;;;;14.80;2.95;;;19.60;99.90;;;;;;5034059;28;20022;-36
2022/05/14 08:17:12;;;;;;;10.63;2.60;;;19.90;99.90;;;;;;5035379;28;20030;-38
2022/05/14 08:19:38;;;;;;;9.32;2.30;;;20.00;99.90;;;;;;5035249;28;20060;-38
2022/05/14 08:24:49;;;;;;;10.65;2.25;;;20.40;99.00;;;;;;5035548;28;20117;-38
2022/05/14 08:27:14;;;;;;;10.68;2.28;;;20.80;98.90;;;;;;5034897;28;20077;-37
2022/05/14 08:29:41;;;;;;;7.75;2.45;;;21.20;99.10;;;;;;5035186;28;20498;-38
2022/05/14 08:32:07;;;;;;;15.30;3.87;;;20.90;98.20;;;;;;5035092;28;20100;-37
2022/05/14 08:34:33;;;;;;;12.63;1.98;;;21.10;98.20;;;;;;5035084;28;20082;-36
2022/05/14 08:36:59;;;;;;;13.38;2.90;;;21.20;97.90;;;;;;5035027;28;20017;-38
2022/05/14 08:39:27;;;;;;;18.85;2.75;;;21.60;97.50;;;;;;5034958;28;20109;-42
2022/05/14 08:41:55;;;;;;;16.23;2.75;;;21.90;96.90;;;;;;5035143;28;20034;-38
2022/05/14 08:44:27;;;;;;;12.85;2.78;;;22.00;95.90;;;;;;5034951;28;20385;-43
2022/05/14 08:47:04;;;;;;;7.07;2.00;;;22.10;96.20;;;;;;5034807;28;20538;-37
2022/05/14 08:49:36;;;;;;;11.95;3.25;;;22.00;96.20;;;;;;5034982;28;20431;-46
2022/05/14 08:52:05;;;;;;;10.02;2.78;;;22.20;95.10;;;;;;5034970;28;20473;-39
2022/05/14 08:54:33;;;;;;;18.55;3.30;;;22.50;94.60;;;;;;5034582;28;20022;-30
2022/05/14 08:57:11;;;;;;;14.82;3.03;;;22.80;93.80;;;;;;5033304;28;20478;-32
2022/05/14 08:59:59;;;;;;;9.70;2.45;;;22.70;94.20;;;;;;5034472;28;20494;-39
2022/05/14 09:02:30;;;;;;;12.88;2.58;;;22.80;94.20;;;;;;5034266;28;20034;-39
2022/05/14 09:05:04;;;;;;;15.23;2.58;;;22.80;94.10;;;;;;5034485;28;20017;-39
2022/05/14 09:07:30;;;;;;;14.70;2.25;;;22.70;93.80;;;;;;5034425;28;20018;-37
2022/05/14 09:09:57;;;;;;;14.77;3.22;;;22.60;94.20;;;;;;5034171;28;20155;-39
2022/05/14 09:12:29;;;;;;;7.60;2.05;;;22.50;94.10;;;;;;5034515;28;20096;-38
2022/05/14 09:14:58;;;;;;;12.98;3.03;;;22.50;93.80;;;;;;5034102;28;20018;-38
2022/05/14 09:17:29;;;;;;;8.88;1.92;;;22.40;93.70;;;;;;5034154;28;20363;-39
2022/05/14 09:19:56;;;;;;;9.98;2.60;;;22.60;93.50;;;;;;5032856;28;20108;-40
2022/05/14 09:22:27;;;;;;;9.48;2.53;;;23.20;93.40;;;;;;5032422;28;20486;-39
2022/05/14 09:24:59;;;;;;;10.15;2.75;;;23.50;93.40;;;;;;5034027;28;20022;-46
2022/05/14 09:27:55;;;;;;;12.38;2.67;;;23.70;93.10;;;;;;5033692;28;20498;-39
2022/05/14 09:30:29;;;;;;;19.17;3.50;;;23.60;92.80;;;;;;5034248;28;20026;-37
2022/05/14 09:32:55;;;;;;;12.27;2.33;;;24.10;92.40;;;;;;5033816;28;20026;-38
2022/05/14 09:35:33;;;;;;;9.10;2.88;;;24.50;92.10;;;;;;5033856;28;20394;-40
2022/05/14 09:38:21;;;;;;;16.05;2.97;;;24.80;91.70;;;;;;5034074;28;20032;-38
2022/05/14 09:40:47;;;;;;;15.18;3.03;;;25.30;92.10;;;;;;5033945;28;20022;-39
2022/05/14 09:43:15;;;;;;;10.30;3.97;;;25.00;91.60;;;;;;5033632;28;20035;-38
2022/05/14 09:45:44;;;;;;;23.40;3.50;;;24.40;92.00;;;;;;5033632;28;20025;-38
2022/05/14 09:48:21;;;;;;;16.95;3.03;;;23.50;92.60;;;;;;5033544;28;20470;-37
2022/05/14 09:50:55;;;;;;;14.20;3.53;;;22.70;93.60;;;;;;5033563;28;20079;-36
2022/05/14 09:53:33;;;;;;;11.23;3.00;;;21.90;93.60;;;;;;5033790;28;20474;-36
2022/05/14 09:56:22;;;;;;;9.88;2.50;;;21.40;94.40;;;;;;5033547;28;20397;-37
2022/05/14 09:59:13;;;;;;;6.60;2.13;;;21.80;94.30;;;;;;5033497;28;20102;-40
2022/05/14 10:02:08;;;;;;;8.70;2.63;;;22.60;93.80;;;;;;5033286;28;20026;-38
2022/05/14 10:04:52;;;;;;;15.52;3.40;;;23.40;92.70;;;;;;5033029;28;20088;-38
2022/05/14 10:07:47;;;;;;;11.63;3.00;;;23.60;92.50;;;;;;5033358;28;20474;-38
2022/05/14 10:10:44;;;;;;;9.83;2.97;;;23.40;92.60;;;;;;5033042;28;20037;-37
2022/05/14 10:13:32;;;;;;;12.23;2.50;;;23.50;92.60;;;;;;5033250;28;20060;-38
2022/05/14 10:16:25;;;;;;;13.15;2.90;;;23.30;92.60;;;;;;5033120;28;20033;-37
2022/05/14 10:19:08;;;;;;;15.20;3.40;;;23.50;92.50;;;;;;5033191;28;20439;-46
2022/05/14 10:21:53;;;;;;;10.85;2.53;;;23.80;91.60;;;;;;5031817;28;20500;-38
2022/05/14 10:27:46;;;;;;;11.70;2.60;;;23.30;93.00;;;;;;5033048;28;20543;-38
2022/05/14 10:30:20;;;;;;;14.57;3.15;;;22.70;93.20;;;;;;5033292;28;20084;-37
2022/05/14 10:32:50;;;;;;;13.52;3.33;;;22.20;93.80;;;;;;5033207;28;20025;-37
2022/05/14 10:35:27;;;;;;;14.75;2.65;;;22.20;93.80;;;;;;5032837;28;20021;-37
2022/05/14 10:38:11;;;;;;;15.63;4.07;;;22.10;93.80;;;;;;5032974;28;20061;-37
2022/05/14 10:40:46;;;;;;;23.63;3.70;;;22.10;93.30;;;;;;5033018;28;20057;-38
2022/05/14 10:43:35;;;;;;;14.65;2.85;;;21.90;94.20;;;;;;5032735;28;20032;-37
2022/05/14 10:46:07;;;;;;;17.35;2.95;;;21.70;94.50;;;;;;5032800;28;20020;-38
2022/05/14 10:48:34;;;;;;;13.05;2.85;;;21.60;94.50;;;;;;5032910;28;20096;-37
2022/05/14 10:51:06;;;;;;;12.07;2.75;;;21.60;94.60;;;;;;5033194;28;20026;-36
2022/05/14 10:53:33;;;;;;;13.00;3.00;;;22.00;94.30;;;;;;5032913;28;20037;-36
2022/05/14 10:55:58;;;;;;;;;;;22.30;94.70;;;;;;5033339;28;20390;-42
2022/05/14 10:58:45;;;;;;;18.13;2.75;;;22.50;94.40;;;;;;5032844;28;19913;-57
2022/05/14 11:01:42;;;;;;;9.23;2.63;;;22.60;94.00;;;;;;5032779;28;20029;-38
2022/05/14 11:04:17;;;;;;;;;;;22.60;93.50;;;;;;5032627;28;20037;-38
2022/05/14 11:06:59;;;;;;;14.10;2.55;;;22.30;94.00;;;;;;5032951;28;20377;-38
2022/05/14 11:09:31;;;;;;;11.63;3.78;;;22.30;94.00;;;;;;5032688;28;20032;-39
2022/05/14 11:12:03;;;;;;;12.07;2.53;;;22.20;94.20;;;;;;5032708;28;20024;-38
2022/05/14 11:14:51;;;;;;;11.20;2.92;;;22.50;93.70;;;;;;5032742;28;20104;-38
2022/05/14 11:17:26;;;;;;;15.07;3.78;;;23.00;93.40;;;;;;5032931;28;20053;-38
2022/05/14 11:20:13;;;;;;;17.63;2.83;;;23.10;93.00;;;;;;5032616;28;20021;-38
2022/05/14 11:22:39;;;;;;;;;;;23.30;93.20;;;;;;5032741;28;20045;-35
2022/05/14 11:25:24;;;;;;;17.80;2.85;;;23.50;92.80;;;;;;5032858;28;20375;-37
2022/05/14 11:28:09;;;;;;;11.27;3.53;;;23.50;92.90;;;;;;5032300;28;20069;-37
2022/05/14 11:30:40;;;;;;;15.57;3.20;;;23.60;92.80;;;;;;5032444;28;20025;-38
2022/05/14 11:33:21;;;;;;;11.82;2.25;;;23.60;92.40;;;;;;5032721;28;20025;-32
2022/05/14 11:35:48;;;;;;;15.02;3.50;;;23.40;92.30;;;;;;5035459;28;20084;-30
2022/05/14 11:38:33;;;;;;;9.60;2.78;;;23.40;92.60;;;;;;5036316;28;20432;-30
2022/05/14 11:41:06;;;;;;;14.15;2.78;;;23.70;92.20;;;;;;5035973;28;20022;-29
2022/05/14 11:43:37;;;;;;;10.13;2.72;;;23.80;92.40;;;;;;5036128;28;20553;-32
2022/05/14 11:46:20;;;;;;;15.07;3.35;;;23.80;92.40;;;;;;5035907;28;20028;-34
2022/05/14 11:48:58;;;;;;;14.10;3.65;;;23.70;92.60;;;;;;5034812;28;20556;-34
2022/05/14 11:51:42;;;;;;;9.07;2.92;;;23.80;92.20;;;;;;5035825;28;20496;-32
2022/05/14 11:54:30;;;;;;;11.80;2.72;;;23.60;92.10;;;;;;5035670;28;20026;-32
2022/05/14 11:57:02;;;;;;;8.82;3.33;;;23.70;93.00;;;;;;5034485;28;20447;-46
2022/05/14 11:59:42;;;;;;;9.20;2.95;;;24.00;92.50;;;;;;5035721;28;20028;-36
2022/05/14 12:02:16;;;;;;;14.15;2.35;;;24.10;92.00;;;;;;5034408;28;20083;-37
2022/05/14 12:04:46;;;;;;;10.23;2.45;;;24.10;92.70;;;;;;5035814;28;20432;-37
2022/05/14 12:07:22;;;;;;;17.85;3.28;;;23.90;92.30;;;;;;5035546;28;20501;-36
2022/05/14 12:10:10;;;;;;;13.38;2.67;;;23.90;92.50;;;;;;5035491;28;20429;-36
2022/05/14 12:12:59;;;;;;;11.20;3.05;;;23.70;92.20;;;;;;5035329;28;20122;-37
2022/05/14 12:15:25;;;;;;;13.18;2.78;;;23.20;92.70;;;;;;5035396;28;20029;-37
2022/05/14 12:17:56;;;;;;;17.27;2.97;;;22.90;93.40;;;;;;5035285;28;20028;-37
2022/05/14 12:20:29;;;;;;;22.67;4.15;;;22.50;93.20;;;;;;5035579;28;20519;-37
2022/05/14 12:23:16;;;;;;;7.60;2.85;;;22.20;93.40;;;;;;5035422;28;20025;-42
2022/05/14 12:25:46;;;;;;;11.60;3.30;;;22.00;93.70;;;;;;5035542;28;20489;-37
2022/05/14 12:28:29;;;;;;;22.38;3.88;;;21.60;94.40;;;;;;5034951;28;20453;-39
2022/05/14 12:34:07;;;;;;;9.35;2.47;;;21.30;94.30;;;;;;5035143;28;20060;-38
2022/05/14 12:36:49;;;;;;;16.35;3.10;;;21.50;94.10;;;;;;5035286;28;20432;-37
2022/05/14 12:39:22;;;;;;;12.80;2.78;;;21.60;93.80;;;;;;5035064;28;20056;-40
2022/05/14 12:41:52;;;;;;;12.63;3.42;;;21.50;93.50;;;;;;5035218;28;20022;-37
2022/05/14 12:44:25;;;;;;;12.07;2.55;;;21.50;94.30;;;;;;5034793;28;20030;-37
2022/05/14 12:46:54;;;;;;;11.43;2.75;;;21.50;94.40;;;;;;5034520;28;20021;-37
2022/05/14 12:49:44;;;;;;;9.40;2.75;;;21.50;94.20;;;;;;5034717;28;20021;-28
2022/05/14 12:52:12;;;;;;;12.88;3.03;;;21.50;93.90;;;;;;5034624;28;20075;-36
2022/05/14 12:54:49;;;;;;;9.10;2.38;;;21.40;94.60;;;;;;5034632;28;20108;-29
2022/05/14 12:57:16;;;;;;;12.45;3.30;;;21.20;94.30;;;;;;5016704;28;20140;-33
2022/05/14 12:59:41;;;;;;;14.23;2.70;;;21.30;94.40;;;;;;5034584;28;20029;-30
2022/05/14 13:02:14;;;;;;;10.80;3.67;;;21.30;94.50;;;;;;5034401;28;20128;-31
2022/05/14 13:04:49;;;;;;;8.07;3.58;;;21.30;94.40;;;;;;5033570;28;20086;-29
2022/05/14 13:07:15;;;;;;;9.23;2.60;;;21.40;94.80;;;;;;5034584;28;20036;-33
2022/05/14 13:09:41;;;;;;;8.52;2.85;;;21.40;94.00;;;;;;5034287;28;20501;-32
2022/05/14 13:12:15;;;;;;;19.83;2.85;;;21.30;94.20;;;;;;5034406;28;20512;-29
2022/05/14 13:14:48;;;;;;;13.93;2.78;;;21.30;94.80;;;;;;5034211;28;20049;-35
2022/05/14 13:17:14;;;;;;;8.45;2.13;;;21.30;94.50;;;;;;5034181;28;20134;-31
2022/05/14 13:19:55;;;;;;;8.75;2.63;;;21.70;94.50;;;;;;5034193;28;20057;-30